sensor_id;sensor_type;location;lat;lon;timestamp;P1;durP1;ratioP1;P2;durP2;ratioP2
37241;SDS011;23135;51.078;12.108;2023-07-24T00:00:20;1.45;;;1.08;;
37241;SDS011;23135;51.078;12.108;2023-07-24T00:02:46;2.15;;;0.77;;
37241;SDS011;23135;51.078;12.108;2023-07-24T00:05:12;0.85;;;0.65;;
37241;SDS011;23135;51.078;12.108;2023-07-24T00:07:38;3.35;;;0.57;;
37241;SDS011;23135;51.078;12.108;2023-07-24T00:10:03;4.85;;;0.98;;
37241;SDS011;23135;51.078;12.108;2023-07-24T00:12:29;0.88;;;0.47;;
37241;SDS011;23135;51.078;12.108;2023-07-24T00:14:55;1.08;;;0.73;;
37241;SDS011;23135;51.078;12.108;2023-07-24T00:17:21;1.10;;;0.55;;
37241;SDS011;23135;51.078;12.108;2023-07-24T00:19:47;1.60;;;0.65;;
37241;SDS011;23135;51.078;12.108;2023-07-24T00:22:13;1.23;;;1.02;;
37241;SDS011;23135;51.078;12.108;2023-07-24T00:24:38;0.93;;;0.68;;
37241;SDS011;23135;51.078;12.108;2023-07-24T00:27:04;1.42;;;0.40;;
37241;SDS011;23135;51.078;12.108;2023-07-24T00:29:29;3.67;;;0.80;;
37241;SDS011;23135;51.078;12.108;2023-07-24T00:31:55;2.65;;;0.85;;
37241;SDS011;23135;51.078;12.108;2023-07-24T00:34:21;2.15;;;1.17;;
37241;SDS011;23135;51.078;12.108;2023-07-24T00:36:46;4.45;;;1.10;;
37241;SDS011;23135;51.078;12.108;2023-07-24T00:39:13;2.10;;;0.68;;
37241;SDS011;23135;51.078;12.108;2023-07-24T00:41:39;1.65;;;1.05;;
37241;SDS011;23135;51.078;12.108;2023-07-24T00:44:05;1.23;;;0.75;;
37241;SDS011;23135;51.078;12.108;2023-07-24T00:46:30;1.15;;;0.90;;
37241;SDS011;23135;51.078;12.108;2023-07-24T00:48:57;1.55;;;1.02;;
37241;SDS011;23135;51.078;12.108;2023-07-24T00:51:25;3.45;;;1.20;;
37241;SDS011;23135;51.078;12.108;2023-07-24T00:53:55;4.82;;;1.30;;
37241;SDS011;23135;51.078;12.108;2023-07-24T00:56:22;4.78;;;1.02;;
37241;SDS011;23135;51.078;12.108;2023-07-24T00:58:48;0.75;;;0.60;;
37241;SDS011;23135;51.078;12.108;2023-07-24T01:01:14;1.85;;;0.77;;
37241;SDS011;23135;51.078;12.108;2023-07-24T01:03:41;2.15;;;0.88;;
37241;SDS011;23135;51.078;12.108;2023-07-24T01:06:08;3.28;;;1.10;;
37241;SDS011;23135;51.078;12.108;2023-07-24T01:08:34;1.83;;;1.23;;
37241;SDS011;23135;51.078;12.108;2023-07-24T01:11:03;1.38;;;1.10;;
37241;SDS011;23135;51.078;12.108;2023-07-24T01:13:40;3.20;;;1.27;;
37241;SDS011;23135;51.078;12.108;2023-07-24T01:16:09;2.45;;;1.05;;
37241;SDS011;23135;51.078;12.108;2023-07-24T01:18:43;5.38;;;1.25;;
37241;SDS011;23135;51.078;12.108;2023-07-24T01:21:11;3.22;;;1.15;;
37241;SDS011;23135;51.078;12.108;2023-07-24T01:23:55;4.40;;;1.27;;
37241;SDS011;23135;51.078;12.108;2023-07-24T01:26:32;3.63;;;0.95;;
37241;SDS011;23135;51.078;12.108;2023-07-24T01:28:58;4.55;;;1.17;;
37241;SDS011;23135;51.078;12.108;2023-07-24T01:31:24;3.17;;;0.80;;
37241;SDS011;23135;51.078;12.108;2023-07-24T01:33:49;1.58;;;0.77;;
37241;SDS011;23135;51.078;12.108;2023-07-24T01:36:15;1.02;;;0.73;;
37241;SDS011;23135;51.078;12.108;2023-07-24T01:38:41;1.13;;;0.75;;
37241;SDS011;23135;51.078;12.108;2023-07-24T01:41:07;5.88;;;1.17;;
37241;SDS011;23135;51.078;12.108;2023-07-24T01:43:34;3.90;;;1.30;;
37241;SDS011;23135;51.078;12.108;2023-07-24T01:45:59;2.72;;;1.55;;
37241;SDS011;23135;51.078;12.108;2023-07-24T01:48:25;1.13;;;1.00;;
37241;SDS011;23135;51.078;12.108;2023-07-24T01:50:50;2.65;;;1.65;;
37241;SDS011;23135;51.078;12.108;2023-07-24T01:53:16;1.88;;;1.08;;
37241;SDS011;23135;51.078;12.108;2023-07-24T01:55:41;1.23;;;1.05;;
37241;SDS011;23135;51.078;12.108;2023-07-24T01:58:07;1.35;;;0.98;;
37241;SDS011;23135;51.078;12.108;2023-07-24T02:00:33;3.72;;;0.82;;
37241;SDS011;23135;51.078;12.108;2023-07-24T02:02:58;1.35;;;1.00;;
37241;SDS011;23135;51.078;12.108;2023-07-24T02:05:24;10.45;;;1.30;;
37241;SDS011;23135;51.078;12.108;2023-07-24T02:07:50;3.60;;;1.00;;
37241;SDS011;23135;51.078;12.108;2023-07-24T02:10:16;3.20;;;1.58;;
37241;SDS011;23135;51.078;12.108;2023-07-24T02:12:41;1.20;;;0.90;;
37241;SDS011;23135;51.078;12.108;2023-07-24T02:15:07;12.63;;;4.13;;
37241;SDS011;23135;51.078;12.108;2023-07-24T02:17:33;1.92;;;0.82;;
37241;SDS011;23135;51.078;12.108;2023-07-24T02:19:58;5.85;;;0.80;;
37241;SDS011;23135;51.078;12.108;2023-07-24T02:22:24;2.83;;;0.95;;
37241;SDS011;23135;51.078;12.108;2023-07-24T02:24:50;5.47;;;1.52;;
37241;SDS011;23135;51.078;12.108;2023-07-24T02:27:25;2.95;;;1.02;;
37241;SDS011;23135;51.078;12.108;2023-07-24T02:29:52;1.35;;;1.00;;
37241;SDS011;23135;51.078;12.108;2023-07-24T02:32:19;1.77;;;0.85;;
37241;SDS011;23135;51.078;12.108;2023-07-24T02:34:47;2.15;;;1.02;;
37241;SDS011;23135;51.078;12.108;2023-07-24T02:37:16;5.13;;;1.10;;
37241;SDS011;23135;51.078;12.108;2023-07-24T02:39:42;3.50;;;1.20;;
37241;SDS011;23135;51.078;12.108;2023-07-24T02:42:08;8.60;;;1.48;;
37241;SDS011;23135;51.078;12.108;2023-07-24T02:44:34;3.50;;;1.38;;
37241;SDS011;23135;51.078;12.108;2023-07-24T02:47:00;1.90;;;1.10;;
37241;SDS011;23135;51.078;12.108;2023-07-24T02:49:25;4.88;;;1.88;;
37241;SDS011;23135;51.078;12.108;2023-07-24T02:51:51;3.08;;;1.38;;
37241;SDS011;23135;51.078;12.108;2023-07-24T02:54:16;2.72;;;1.45;;
37241;SDS011;23135;51.078;12.108;2023-07-24T02:56:42;4.57;;;1.65;;
37241;SDS011;23135;51.078;12.108;2023-07-24T02:59:07;1.48;;;1.13;;
37241;SDS011;23135;51.078;12.108;2023-07-24T03:01:33;3.72;;;1.05;;
37241;SDS011;23135;51.078;12.108;2023-07-24T03:03:59;7.88;;;1.77;;
37241;SDS011;23135;51.078;12.108;2023-07-24T03:06:25;2.80;;;1.40;;
37241;SDS011;23135;51.078;12.108;2023-07-24T03:08:51;1.60;;;1.10;;
37241;SDS011;23135;51.078;12.108;2023-07-24T03:11:16;3.53;;;1.40;;
37241;SDS011;23135;51.078;12.108;2023-07-24T03:13:42;4.30;;;1.02;;
37241;SDS011;23135;51.078;12.108;2023-07-24T03:16:08;2.72;;;1.40;;
37241;SDS011;23135;51.078;12.108;2023-07-24T03:18:34;4.00;;;1.25;;
37241;SDS011;23135;51.078;12.108;2023-07-24T03:20:59;1.67;;;1.20;;
37241;SDS011;23135;51.078;12.108;2023-07-24T03:23:25;3.72;;;1.60;;
37241;SDS011;23135;51.078;12.108;2023-07-24T03:25:51;6.45;;;1.08;;
37241;SDS011;23135;51.078;12.108;2023-07-24T03:28:16;4.93;;;1.58;;
37241;SDS011;23135;51.078;12.108;2023-07-24T03:30:42;1.42;;;1.10;;
37241;SDS011;23135;51.078;12.108;2023-07-24T03:33:08;2.35;;;1.10;;
37241;SDS011;23135;51.078;12.108;2023-07-24T03:35:33;7.30;;;2.00;;
37241;SDS011;23135;51.078;12.108;2023-07-24T03:37:59;9.70;;;2.67;;
37241;SDS011;23135;51.078;12.108;2023-07-24T03:40:25;3.42;;;1.98;;
37241;SDS011;23135;51.078;12.108;2023-07-24T03:42:51;7.65;;;2.20;;
37241;SDS011;23135;51.078;12.108;2023-07-24T03:45:16;4.95;;;2.25;;
37241;SDS011;23135;51.078;12.108;2023-07-24T03:47:42;4.47;;;1.85;;
37241;SDS011;23135;51.078;12.108;2023-07-24T03:50:08;3.10;;;1.95;;
37241;SDS011;23135;51.078;12.108;2023-07-24T03:52:34;4.40;;;1.83;;
37241;SDS011;23135;51.078;12.108;2023-07-24T03:54:59;1.88;;;1.50;;
37241;SDS011;23135;51.078;12.108;2023-07-24T03:57:25;7.90;;;2.20;;
37241;SDS011;23135;51.078;12.108;2023-07-24T03:59:50;5.45;;;2.08;;
37241;SDS011;23135;51.078;12.108;2023-07-24T04:02:16;13.10;;;3.20;;
37241;SDS011;23135;51.078;12.108;2023-07-24T04:04:41;14.27;;;2.65;;
37241;SDS011;23135;51.078;12.108;2023-07-24T04:07:07;5.88;;;1.92;;
37241;SDS011;23135;51.078;12.108;2023-07-24T04:09:33;11.85;;;3.25;;
37241;SDS011;23135;51.078;12.108;2023-07-24T04:11:58;7.78;;;2.65;;
37241;SDS011;23135;51.078;12.108;2023-07-24T04:14:24;10.38;;;3.28;;
37241;SDS011;23135;51.078;12.108;2023-07-24T04:16:49;9.50;;;2.45;;
37241;SDS011;23135;51.078;12.108;2023-07-24T04:19:15;6.07;;;2.10;;
37241;SDS011;23135;51.078;12.108;2023-07-24T04:21:41;4.85;;;1.77;;
37241;SDS011;23135;51.078;12.108;2023-07-24T04:24:06;5.00;;;1.67;;
37241;SDS011;23135;51.078;12.108;2023-07-24T04:26:33;4.75;;;2.08;;
37241;SDS011;23135;51.078;12.108;2023-07-24T04:28:58;11.23;;;2.00;;
37241;SDS011;23135;51.078;12.108;2023-07-24T04:31:24;2.55;;;1.77;;
37241;SDS011;23135;51.078;12.108;2023-07-24T04:33:50;3.67;;;1.75;;
37241;SDS011;23135;51.078;12.108;2023-07-24T04:36:15;4.63;;;1.98;;
37241;SDS011;23135;51.078;12.108;2023-07-24T04:38:41;5.45;;;1.77;;
37241;SDS011;23135;51.078;12.108;2023-07-24T04:41:06;2.75;;;1.77;;
37241;SDS011;23135;51.078;12.108;2023-07-24T04:43:32;2.72;;;1.45;;
37241;SDS011;23135;51.078;12.108;2023-07-24T04:45:57;1.42;;;1.33;;
37241;SDS011;23135;51.078;12.108;2023-07-24T04:48:23;7.85;;;2.42;;
37241;SDS011;23135;51.078;12.108;2023-07-24T04:50:56;1.92;;;1.70;;
37241;SDS011;23135;51.078;12.108;2023-07-24T04:53:22;3.30;;;1.88;;
37241;SDS011;23135;51.078;12.108;2023-07-24T04:55:48;3.17;;;1.80;;
37241;SDS011;23135;51.078;12.108;2023-07-24T04:58:14;3.33;;;1.98;;
37241;SDS011;23135;51.078;12.108;2023-07-24T05:00:40;5.40;;;2.03;;
37241;SDS011;23135;51.078;12.108;2023-07-24T05:03:05;3.67;;;2.10;;
37241;SDS011;23135;51.078;12.108;2023-07-24T05:05:33;1.88;;;1.17;;
37241;SDS011;23135;51.078;12.108;2023-07-24T05:07:59;3.97;;;1.45;;
37241;SDS011;23135;51.078;12.108;2023-07-24T05:10:25;3.78;;;1.77;;
37241;SDS011;23135;51.078;12.108;2023-07-24T05:12:50;2.92;;;2.08;;
37241;SDS011;23135;51.078;12.108;2023-07-24T05:15:16;3.97;;;2.38;;
37241;SDS011;23135;51.078;12.108;2023-07-24T05:17:42;5.72;;;3.20;;
37241;SDS011;23135;51.078;12.108;2023-07-24T05:20:08;4.40;;;1.77;;
37241;SDS011;23135;51.078;12.108;2023-07-24T05:22:35;4.22;;;2.10;;
37241;SDS011;23135;51.078;12.108;2023-07-24T05:25:00;4.40;;;2.33;;
37241;SDS011;23135;51.078;12.108;2023-07-24T05:27:26;3.78;;;2.15;;
37241;SDS011;23135;51.078;12.108;2023-07-24T05:29:52;3.00;;;2.38;;
37241;SDS011;23135;51.078;12.108;2023-07-24T05:32:17;4.63;;;2.08;;
37241;SDS011;23135;51.078;12.108;2023-07-24T05:34:43;3.25;;;2.20;;
37241;SDS011;23135;51.078;12.108;2023-07-24T05:37:08;5.55;;;2.53;;
37241;SDS011;23135;51.078;12.108;2023-07-24T05:39:34;9.10;;;2.05;;
37241;SDS011;23135;51.078;12.108;2023-07-24T05:42:00;4.95;;;2.47;;
37241;SDS011;23135;51.078;12.108;2023-07-24T05:44:26;10.70;;;2.38;;
37241;SDS011;23135;51.078;12.108;2023-07-24T05:46:51;4.70;;;2.08;;
37241;SDS011;23135;51.078;12.108;2023-07-24T05:49:17;5.05;;;2.60;;
37241;SDS011;23135;51.078;12.108;2023-07-24T05:51:42;5.55;;;2.65;;
37241;SDS011;23135;51.078;12.108;2023-07-24T05:54:08;4.10;;;2.15;;
37241;SDS011;23135;51.078;12.108;2023-07-24T05:56:34;5.30;;;2.75;;
37241;SDS011;23135;51.078;12.108;2023-07-24T05:58:59;3.38;;;1.98;;
37241;SDS011;23135;51.078;12.108;2023-07-24T06:01:25;4.53;;;2.95;;
37241;SDS011;23135;51.078;12.108;2023-07-24T06:03:50;4.72;;;2.80;;
37241;SDS011;23135;51.078;12.108;2023-07-24T06:06:16;8.80;;;2.40;;
37241;SDS011;23135;51.078;12.108;2023-07-24T06:08:41;4.63;;;2.30;;
37241;SDS011;23135;51.078;12.108;2023-07-24T06:11:07;8.15;;;2.60;;
37241;SDS011;23135;51.078;12.108;2023-07-24T06:13:32;4.00;;;2.50;;
37241;SDS011;23135;51.078;12.108;2023-07-24T06:15:58;7.07;;;2.97;;
37241;SDS011;23135;51.078;12.108;2023-07-24T06:18:24;6.00;;;2.72;;
37241;SDS011;23135;51.078;12.108;2023-07-24T06:20:53;5.28;;;2.53;;
37241;SDS011;23135;51.078;12.108;2023-07-24T06:23:19;6.13;;;3.22;;
37241;SDS011;23135;51.078;12.108;2023-07-24T06:25:45;5.18;;;2.97;;
37241;SDS011;23135;51.078;12.108;2023-07-24T06:28:10;4.63;;;2.92;;
37241;SDS011;23135;51.078;12.108;2023-07-24T06:30:37;4.88;;;3.00;;
37241;SDS011;23135;51.078;12.108;2023-07-24T06:33:03;7.70;;;3.50;;
37241;SDS011;23135;51.078;12.108;2023-07-24T06:35:29;3.83;;;2.58;;
37241;SDS011;23135;51.078;12.108;2023-07-24T06:37:55;5.90;;;2.78;;
37241;SDS011;23135;51.078;12.108;2023-07-24T06:40:20;6.78;;;3.08;;
37241;SDS011;23135;51.078;12.108;2023-07-24T06:42:46;4.32;;;2.90;;
37241;SDS011;23135;51.078;12.108;2023-07-24T06:45:11;5.65;;;2.50;;
37241;SDS011;23135;51.078;12.108;2023-07-24T06:47:37;5.38;;;3.55;;
37241;SDS011;23135;51.078;12.108;2023-07-24T06:50:03;6.60;;;2.72;;
37241;SDS011;23135;51.078;12.108;2023-07-24T06:52:29;5.60;;;3.30;;
37241;SDS011;23135;51.078;12.108;2023-07-24T06:54:56;5.25;;;3.95;;
37241;SDS011;23135;51.078;12.108;2023-07-24T06:57:23;6.22;;;2.83;;
37241;SDS011;23135;51.078;12.108;2023-07-24T06:59:49;4.65;;;2.70;;
37241;SDS011;23135;51.078;12.108;2023-07-24T07:02:14;3.90;;;2.80;;
37241;SDS011;23135;51.078;12.108;2023-07-24T07:04:40;4.70;;;2.35;;
37241;SDS011;23135;51.078;12.108;2023-07-24T07:07:05;5.72;;;3.85;;
37241;SDS011;23135;51.078;12.108;2023-07-24T07:09:31;3.78;;;2.63;;
37241;SDS011;23135;51.078;12.108;2023-07-24T07:11:57;3.80;;;3.03;;
37241;SDS011;23135;51.078;12.108;2023-07-24T07:14:22;5.43;;;2.78;;
37241;SDS011;23135;51.078;12.108;2023-07-24T07:16:48;4.78;;;2.60;;
37241;SDS011;23135;51.078;12.108;2023-07-24T07:19:14;5.57;;;2.17;;
37241;SDS011;23135;51.078;12.108;2023-07-24T07:21:39;5.10;;;2.78;;
37241;SDS011;23135;51.078;12.108;2023-07-24T07:24:05;6.25;;;2.55;;
37241;SDS011;23135;51.078;12.108;2023-07-24T07:26:31;4.00;;;2.40;;
37241;SDS011;23135;51.078;12.108;2023-07-24T07:28:56;6.85;;;2.22;;
37241;SDS011;23135;51.078;12.108;2023-07-24T07:31:22;5.40;;;3.33;;
37241;SDS011;23135;51.078;12.108;2023-07-24T07:33:47;3.72;;;2.33;;
37241;SDS011;23135;51.078;12.108;2023-07-24T07:36:13;3.03;;;2.20;;
37241;SDS011;23135;51.078;12.108;2023-07-24T07:38:39;3.58;;;2.42;;
37241;SDS011;23135;51.078;12.108;2023-07-24T07:41:05;4.63;;;3.38;;
37241;SDS011;23135;51.078;12.108;2023-07-24T07:43:31;3.42;;;2.45;;
37241;SDS011;23135;51.078;12.108;2023-07-24T07:45:56;6.25;;;2.75;;
37241;SDS011;23135;51.078;12.108;2023-07-24T07:48:24;9.23;;;2.58;;
37241;SDS011;23135;51.078;12.108;2023-07-24T07:50:50;5.40;;;2.70;;
37241;SDS011;23135;51.078;12.108;2023-07-24T07:53:16;4.10;;;2.00;;
37241;SDS011;23135;51.078;12.108;2023-07-24T07:55:42;2.83;;;2.13;;
37241;SDS011;23135;51.078;12.108;2023-07-24T07:58:08;5.75;;;2.33;;
37241;SDS011;23135;51.078;12.108;2023-07-24T08:00:34;4.30;;;2.90;;
37241;SDS011;23135;51.078;12.108;2023-07-24T08:02:59;4.22;;;3.22;;
37241;SDS011;23135;51.078;12.108;2023-07-24T08:05:25;4.88;;;3.15;;
37241;SDS011;23135;51.078;12.108;2023-07-24T08:07:51;4.82;;;2.38;;
37241;SDS011;23135;51.078;12.108;2023-07-24T08:10:16;4.35;;;2.35;;
37241;SDS011;23135;51.078;12.108;2023-07-24T08:12:42;3.00;;;2.10;;
37241;SDS011;23135;51.078;12.108;2023-07-24T08:15:09;4.57;;;2.55;;
37241;SDS011;23135;51.078;12.108;2023-07-24T08:17:34;5.50;;;2.78;;
37241;SDS011;23135;51.078;12.108;2023-07-24T08:20:00;3.05;;;2.03;;
37241;SDS011;23135;51.078;12.108;2023-07-24T08:22:26;4.22;;;2.78;;
37241;SDS011;23135;51.078;12.108;2023-07-24T08:24:51;3.78;;;2.85;;
37241;SDS011;23135;51.078;12.108;2023-07-24T08:27:17;5.85;;;3.25;;
37241;SDS011;23135;51.078;12.108;2023-07-24T08:29:42;6.70;;;2.90;;
37241;SDS011;23135;51.078;12.108;2023-07-24T08:32:08;4.68;;;2.92;;
37241;SDS011;23135;51.078;12.108;2023-07-24T08:34:34;4.80;;;3.15;;
37241;SDS011;23135;51.078;12.108;2023-07-24T08:36:59;4.82;;;3.08;;
37241;SDS011;23135;51.078;12.108;2023-07-24T08:39:25;5.50;;;3.30;;
37241;SDS011;23135;51.078;12.108;2023-07-24T08:41:51;5.45;;;3.53;;
37241;SDS011;23135;51.078;12.108;2023-07-24T08:44:16;4.43;;;3.47;;
37241;SDS011;23135;51.078;12.108;2023-07-24T08:46:43;4.90;;;3.20;;
37241;SDS011;23135;51.078;12.108;2023-07-24T08:49:14;4.07;;;2.88;;
37241;SDS011;23135;51.078;12.108;2023-07-24T08:51:43;5.88;;;3.30;;
37241;SDS011;23135;51.078;12.108;2023-07-24T08:54:09;6.97;;;4.10;;
37241;SDS011;23135;51.078;12.108;2023-07-24T08:56:36;4.88;;;3.55;;
37241;SDS011;23135;51.078;12.108;2023-07-24T08:59:03;6.15;;;3.58;;
37241;SDS011;23135;51.078;12.108;2023-07-24T09:01:28;5.68;;;4.07;;
37241;SDS011;23135;51.078;12.108;2023-07-24T09:03:54;7.15;;;3.70;;
37241;SDS011;23135;51.078;12.108;2023-07-24T09:06:20;5.15;;;3.83;;
37241;SDS011;23135;51.078;12.108;2023-07-24T09:08:46;7.35;;;3.60;;
37241;SDS011;23135;51.078;12.108;2023-07-24T09:11:13;8.73;;;3.95;;
37241;SDS011;23135;51.078;12.108;2023-07-24T09:13:40;8.95;;;4.25;;
37241;SDS011;23135;51.078;12.108;2023-07-24T09:16:07;4.90;;;3.72;;
37241;SDS011;23135;51.078;12.108;2023-07-24T09:18:39;6.47;;;3.92;;
37241;SDS011;23135;51.078;12.108;2023-07-24T09:21:06;5.60;;;3.72;;
37241;SDS011;23135;51.078;12.108;2023-07-24T09:23:32;3.67;;;3.17;;
37241;SDS011;23135;51.078;12.108;2023-07-24T09:25:57;7.53;;;3.67;;
37241;SDS011;23135;51.078;12.108;2023-07-24T09:28:24;5.00;;;3.60;;
37241;SDS011;23135;51.078;12.108;2023-07-24T09:30:53;7.40;;;3.47;;
37241;SDS011;23135;51.078;12.108;2023-07-24T09:33:33;5.20;;;3.30;;
37241;SDS011;23135;51.078;12.108;2023-07-24T09:36:01;6.82;;;4.00;;
37241;SDS011;23135;51.078;12.108;2023-07-24T09:38:27;4.82;;;3.67;;
37241;SDS011;23135;51.078;12.108;2023-07-24T09:40:53;5.97;;;4.32;;
37241;SDS011;23135;51.078;12.108;2023-07-24T09:43:24;6.60;;;3.80;;
37241;SDS011;23135;51.078;12.108;2023-07-24T09:45:51;7.75;;;3.85;;
37241;SDS011;23135;51.078;12.108;2023-07-24T09:48:18;8.68;;;4.93;;
37241;SDS011;23135;51.078;12.108;2023-07-24T09:50:45;6.18;;;4.35;;
37241;SDS011;23135;51.078;12.108;2023-07-24T09:53:21;7.57;;;4.85;;
37241;SDS011;23135;51.078;12.108;2023-07-24T09:55:57;6.65;;;3.92;;
37241;SDS011;23135;51.078;12.108;2023-07-24T09:58:25;5.85;;;4.25;;
37241;SDS011;23135;51.078;12.108;2023-07-24T10:00:51;10.18;;;4.32;;
37241;SDS011;23135;51.078;12.108;2023-07-24T10:03:18;5.95;;;4.35;;
37241;SDS011;23135;51.078;12.108;2023-07-24T10:05:45;7.18;;;3.92;;
37241;SDS011;23135;51.078;12.108;2023-07-24T10:08:12;5.50;;;4.60;;
37241;SDS011;23135;51.078;12.108;2023-07-24T10:10:41;8.43;;;4.40;;
37241;SDS011;23135;51.078;12.108;2023-07-24T10:13:07;6.13;;;4.30;;
37241;SDS011;23135;51.078;12.108;2023-07-24T10:15:36;6.55;;;4.30;;
37241;SDS011;23135;51.078;12.108;2023-07-24T10:18:03;6.15;;;4.68;;
37241;SDS011;23135;51.078;12.108;2023-07-24T10:20:40;9.98;;;4.57;;
37241;SDS011;23135;51.078;12.108;2023-07-24T10:23:07;7.28;;;4.70;;
37241;SDS011;23135;51.078;12.108;2023-07-24T10:25:35;7.63;;;4.10;;
37241;SDS011;23135;51.078;12.108;2023-07-24T10:28:06;7.88;;;4.03;;
37241;SDS011;23135;51.078;12.108;2023-07-24T10:30:36;7.25;;;4.65;;
37241;SDS011;23135;51.078;12.108;2023-07-24T10:33:18;8.57;;;4.95;;
37241;SDS011;23135;51.078;12.108;2023-07-24T10:36:02;7.43;;;4.38;;
37241;SDS011;23135;51.078;12.108;2023-07-24T10:38:45;6.82;;;5.43;;
37241;SDS011;23135;51.078;12.108;2023-07-24T10:41:11;33.38;;;6.40;;
37241;SDS011;23135;51.078;12.108;2023-07-24T10:43:43;7.82;;;4.72;;
37241;SDS011;23135;51.078;12.108;2023-07-24T10:46:11;8.07;;;5.20;;
37241;SDS011;23135;51.078;12.108;2023-07-24T10:48:37;6.60;;;4.90;;
37241;SDS011;23135;51.078;12.108;2023-07-24T10:51:07;8.70;;;5.55;;
37241;SDS011;23135;51.078;12.108;2023-07-24T10:53:34;7.45;;;5.10;;
37241;SDS011;23135;51.078;12.108;2023-07-24T10:56:06;11.70;;;5.15;;
37241;SDS011;23135;51.078;12.108;2023-07-24T10:58:32;15.30;;;5.10;;
37241;SDS011;23135;51.078;12.108;2023-07-24T11:01:00;10.50;;;5.75;;
37241;SDS011;23135;51.078;12.108;2023-07-24T11:03:30;7.60;;;5.30;;
37241;SDS011;23135;51.078;12.108;2023-07-24T11:05:56;12.93;;;5.47;;
37241;SDS011;23135;51.078;12.108;2023-07-24T11:08:23;7.05;;;5.45;;
37241;SDS011;23135;51.078;12.108;2023-07-24T11:10:50;9.38;;;5.97;;
37241;SDS011;23135;51.078;12.108;2023-07-24T11:13:17;7.03;;;5.22;;
37241;SDS011;23135;51.078;12.108;2023-07-24T11:15:44;9.20;;;5.22;;
37241;SDS011;23135;51.078;12.108;2023-07-24T11:18:10;5.25;;;4.32;;
37241;SDS011;23135;51.078;12.108;2023-07-24T11:20:36;8.23;;;5.25;;
37241;SDS011;23135;51.078;12.108;2023-07-24T11:23:11;12.15;;;5.32;;
37241;SDS011;23135;51.078;12.108;2023-07-24T11:25:37;7.60;;;5.15;;
37241;SDS011;23135;51.078;12.108;2023-07-24T11:28:07;9.10;;;5.00;;
37241;SDS011;23135;51.078;12.108;2023-07-24T11:30:33;7.00;;;5.30;;
37241;SDS011;23135;51.078;12.108;2023-07-24T11:33:00;6.93;;;5.63;;
37241;SDS011;23135;51.078;12.108;2023-07-24T11:35:28;6.10;;;4.68;;
37241;SDS011;23135;51.078;12.108;2023-07-24T11:37:53;13.50;;;4.72;;
37241;SDS011;23135;51.078;12.108;2023-07-24T11:40:19;8.93;;;4.72;;
37241;SDS011;23135;51.078;12.108;2023-07-24T11:42:46;5.45;;;4.38;;
37241;SDS011;23135;51.078;12.108;2023-07-24T11:45:13;6.70;;;4.43;;
37241;SDS011;23135;51.078;12.108;2023-07-24T11:47:47;7.72;;;5.00;;
37241;SDS011;23135;51.078;12.108;2023-07-24T11:50:13;6.95;;;4.40;;
37241;SDS011;23135;51.078;12.108;2023-07-24T11:52:50;7.07;;;4.63;;
37241;SDS011;23135;51.078;12.108;2023-07-24T11:55:29;7.05;;;4.78;;
37241;SDS011;23135;51.078;12.108;2023-07-24T11:57:59;7.80;;;5.68;;
37241;SDS011;23135;51.078;12.108;2023-07-24T12:00:27;6.30;;;4.75;;
37241;SDS011;23135;51.078;12.108;2023-07-24T12:02:59;11.70;;;5.40;;
37241;SDS011;23135;51.078;12.108;2023-07-24T12:05:25;6.78;;;5.32;;
37241;SDS011;23135;51.078;12.108;2023-07-24T12:07:53;11.90;;;4.25;;
37241;SDS011;23135;51.078;12.108;2023-07-24T12:10:26;11.48;;;5.72;;
37241;SDS011;23135;51.078;12.108;2023-07-24T12:12:53;11.30;;;5.95;;
37241;SDS011;23135;51.078;12.108;2023-07-24T12:15:20;11.07;;;5.63;;
37241;SDS011;23135;51.078;12.108;2023-07-24T12:17:46;6.20;;;4.78;;
37241;SDS011;23135;51.078;12.108;2023-07-24T12:20:11;11.35;;;5.20;;
37241;SDS011;23135;51.078;12.108;2023-07-24T12:22:37;13.18;;;5.95;;
37241;SDS011;23135;51.078;12.108;2023-07-24T12:25:04;6.32;;;4.65;;
37241;SDS011;23135;51.078;12.108;2023-07-24T12:27:31;10.20;;;5.15;;
37241;SDS011;23135;51.078;12.108;2023-07-24T12:29:57;10.35;;;5.35;;
37241;SDS011;23135;51.078;12.108;2023-07-24T12:32:23;11.10;;;5.82;;
37241;SDS011;23135;51.078;12.108;2023-07-24T12:34:50;9.15;;;5.03;;
37241;SDS011;23135;51.078;12.108;2023-07-24T12:37:19;11.15;;;6.38;;
37241;SDS011;23135;51.078;12.108;2023-07-24T12:39:45;8.93;;;5.65;;
37241;SDS011;23135;51.078;12.108;2023-07-24T12:42:12;6.90;;;5.25;;
37241;SDS011;23135;51.078;12.108;2023-07-24T12:44:38;7.65;;;5.60;;
37241;SDS011;23135;51.078;12.108;2023-07-24T12:47:04;8.65;;;5.78;;
37241;SDS011;23135;51.078;12.108;2023-07-24T12:49:29;8.32;;;4.82;;
37241;SDS011;23135;51.078;12.108;2023-07-24T12:51:55;15.57;;;6.25;;
37241;SDS011;23135;51.078;12.108;2023-07-24T12:54:21;6.97;;;5.53;;
37241;SDS011;23135;51.078;12.108;2023-07-24T12:56:47;7.22;;;5.50;;
37241;SDS011;23135;51.078;12.108;2023-07-24T12:59:13;11.85;;;5.00;;
37241;SDS011;23135;51.078;12.108;2023-07-24T13:01:39;6.80;;;4.53;;
37241;SDS011;23135;51.078;12.108;2023-07-24T13:04:05;7.35;;;4.78;;
37241;SDS011;23135;51.078;12.108;2023-07-24T13:06:30;11.82;;;6.45;;
37241;SDS011;23135;51.078;12.108;2023-07-24T13:08:56;17.10;;;6.20;;
37241;SDS011;23135;51.078;12.108;2023-07-24T13:11:22;8.07;;;5.15;;
37241;SDS011;23135;51.078;12.108;2023-07-24T13:13:47;11.15;;;6.07;;
37241;SDS011;23135;51.078;12.108;2023-07-24T13:16:15;8.82;;;5.53;;
37241;SDS011;23135;51.078;12.108;2023-07-24T13:18:41;8.50;;;4.70;;
37241;SDS011;23135;51.078;12.108;2023-07-24T13:21:06;8.93;;;5.47;;
37241;SDS011;23135;51.078;12.108;2023-07-24T13:23:33;6.63;;;4.20;;
37241;SDS011;23135;51.078;12.108;2023-07-24T13:25:58;6.43;;;4.45;;
37241;SDS011;23135;51.078;12.108;2023-07-24T13:28:24;7.85;;;5.25;;
37241;SDS011;23135;51.078;12.108;2023-07-24T13:30:50;11.20;;;5.38;;
37241;SDS011;23135;51.078;12.108;2023-07-24T13:33:15;7.18;;;5.05;;
37241;SDS011;23135;51.078;12.108;2023-07-24T13:35:41;12.23;;;5.95;;
37241;SDS011;23135;51.078;12.108;2023-07-24T13:38:06;8.55;;;5.97;;
37241;SDS011;23135;51.078;12.108;2023-07-24T13:40:35;13.18;;;6.10;;
37241;SDS011;23135;51.078;12.108;2023-07-24T13:43:01;7.57;;;4.85;;
37241;SDS011;23135;51.078;12.108;2023-07-24T13:45:27;8.13;;;5.53;;
37241;SDS011;23135;51.078;12.108;2023-07-24T13:47:53;10.02;;;5.22;;
37241;SDS011;23135;51.078;12.108;2023-07-24T13:50:19;6.55;;;5.03;;
37241;SDS011;23135;51.078;12.108;2023-07-24T13:52:45;8.60;;;4.68;;
37241;SDS011;23135;51.078;12.108;2023-07-24T13:55:10;15.35;;;4.97;;
37241;SDS011;23135;51.078;12.108;2023-07-24T13:57:36;5.97;;;4.88;;
37241;SDS011;23135;51.078;12.108;2023-07-24T14:00:02;6.93;;;5.00;;
37241;SDS011;23135;51.078;12.108;2023-07-24T14:02:28;6.75;;;4.75;;
37241;SDS011;23135;51.078;12.108;2023-07-24T14:04:53;8.75;;;4.68;;
37241;SDS011;23135;51.078;12.108;2023-07-24T14:07:19;5.13;;;4.32;;
37241;SDS011;23135;51.078;12.108;2023-07-24T14:09:45;4.85;;;3.55;;
37241;SDS011;23135;51.078;12.108;2023-07-24T14:12:10;10.52;;;5.28;;
37241;SDS011;23135;51.078;12.108;2023-07-24T14:14:36;5.97;;;4.40;;
37241;SDS011;23135;51.078;12.108;2023-07-24T14:17:01;11.50;;;5.25;;
37241;SDS011;23135;51.078;12.108;2023-07-24T14:19:27;8.52;;;4.20;;
37241;SDS011;23135;51.078;12.108;2023-07-24T14:21:53;8.00;;;4.72;;
37241;SDS011;23135;51.078;12.108;2023-07-24T14:24:18;5.93;;;4.28;;
37241;SDS011;23135;51.078;12.108;2023-07-24T14:26:44;8.63;;;4.25;;
37241;SDS011;23135;51.078;12.108;2023-07-24T14:29:10;7.85;;;4.32;;